sensor_id;sensor_type;location;lat;lon;timestamp;pressure;altitude;pressure_sealevel;temperature;humidity
4814;BME280;15375;48.540;9.268;2022-12-16T00:00:35;96003.44;;;-1.72;100.00
4814;BME280;15375;48.540;9.268;2022-12-16T00:03:00;95924.06;;;-2.16;100.00
4814;BME280;15375;48.540;9.268;2022-12-16T00:05:27;96002.66;;;-1.73;100.00
4814;BME280;15375;48.540;9.268;2022-12-16T00:07:53;96026.78;;;-1.66;100.00
4814;BME280;15375;48.540;9.268;2022-12-16T00:10:20;95997.66;;;-1.78;100.00
4814;BME280;15375;48.540;9.268;2022-12-16T00:12:45;96024.47;;;-1.67;100.00
4814;BME280;15375;48.540;9.268;2022-12-16T00:15:10;96010.72;;;-1.69;100.00
4814;BME280;15375;48.540;9.268;2022-12-16T00:17:36;96000.72;;;-1.79;100.00
4814;BME280;15375;48.540;9.268;2022-12-16T00:20:02;96018.31;;;-1.75;100.00
4814;BME280;15375;48.540;9.268;2022-12-16T00:22:28;96030.63;;;-1.63;100.00
4814;BME280;15375;48.540;9.268;2022-12-16T00:24:53;96026.03;;;-1.63;100.00
4814;BME280;15375;48.540;9.268;2022-12-16T00:27:19;96001.06;;;-1.81;100.00
4814;BME280;15375;48.540;9.268;2022-12-16T00:29:44;95989.25;;;-1.80;100.00
4814;BME280;15375;48.540;9.268;2022-12-16T00:32:09;95971.19;;;-1.97;100.00
4814;BME280;15375;48.540;9.268;2022-12-16T00:34:35;95996.88;;;-1.82;100.00
4814;BME280;15375;48.540;9.268;2022-12-16T00:37:00;95992.28;;;-1.85;100.00
4814;BME280;15375;48.540;9.268;2022-12-16T00:39:25;95961.94;;;-2.07;100.00
4814;BME280;15375;48.540;9.268;2022-12-16T00:41:51;95974.59;;;-2.00;100.00
4814;BME280;15375;48.540;9.268;2022-12-16T00:44:16;96002.22;;;-1.82;100.00
4814;BME280;15375;48.540;9.268;2022-12-16T00:46:42;95922.38;;;-2.38;100.00
4814;BME280;15375;48.540;9.268;2022-12-16T00:49:07;96032.44;;;-1.74;100.00
4814;BME280;15375;48.540;9.268;2022-12-16T00:51:33;95986.00;;;-2.07;100.00
4814;BME280;15375;48.540;9.268;2022-12-16T00:53:58;96040.47;;;-1.74;100.00
4814;BME280;15375;48.540;9.268;2022-12-16T00:56:23;96032.84;;;-1.72;100.00
4814;BME280;15375;48.540;9.268;2022-12-16T00:58:49;96052.00;;;-1.63;100.00
4814;BME280;15375;48.540;9.268;2022-12-16T01:01:14;95976.09;;;-2.03;100.00
4814;BME280;15375;48.540;9.268;2022-12-16T01:03:40;96032.91;;;-1.65;100.00
4814;BME280;15375;48.540;9.268;2022-12-16T01:06:15;96043.63;;;-1.62;100.00
4814;BME280;15375;48.540;9.268;2022-12-16T01:08:40;96024.47;;;-1.67;100.00
4814;BME280;15375;48.540;9.268;2022-12-16T01:11:14;96043.13;;;-1.74;100.00
4814;BME280;15375;48.540;9.268;2022-12-16T01:13:40;96005.81;;;-2.08;100.00
4814;BME280;15375;48.540;9.268;2022-12-16T01:16:05;96035.78;;;-1.84;100.00
4814;BME280;15375;48.540;9.268;2022-12-16T01:18:31;96059.19;;;-1.71;100.00
4814;BME280;15375;48.540;9.268;2022-12-16T01:21:02;95982.84;;;-2.16;100.00
4814;BME280;15375;48.540;9.268;2022-12-16T01:23:27;95985.94;;;-2.10;100.00
4814;BME280;15375;48.540;9.268;2022-12-16T01:25:57;96041.53;;;-1.82;100.00
4814;BME280;15375;48.540;9.268;2022-12-16T01:28:22;96033.13;;;-1.84;100.00
4814;BME280;15375;48.540;9.268;2022-12-16T01:30:48;96056.91;;;-1.72;100.00
4814;BME280;15375;48.540;9.268;2022-12-16T01:33:13;96021.38;;;-2.17;100.00
4814;BME280;15375;48.540;9.268;2022-12-16T01:35:38;96097.38;;;-1.70;100.00
4814;BME280;15375;48.540;9.268;2022-12-16T01:38:04;96060.13;;;-1.93;100.00
4814;BME280;15375;48.540;9.268;2022-12-16T01:40:29;95991.41;;;-2.36;100.00
4814;BME280;15375;48.540;9.268;2022-12-16T01:42:54;95990.94;;;-2.45;100.00
4814;BME280;15375;48.540;9.268;2022-12-16T01:45:35;96072.03;;;-1.87;100.00
4814;BME280;15375;48.540;9.268;2022-12-16T01:48:21;96079.38;;;-1.77;100.00
4814;BME280;15375;48.540;9.268;2022-12-16T01:50:49;96101.22;;;-1.68;100.00
4814;BME280;15375;48.540;9.268;2022-12-16T01:53:15;96018.94;;;-2.29;100.00
4814;BME280;15375;48.540;9.268;2022-12-16T01:55:45;96081.66;;;-1.79;100.00
4814;BME280;15375;48.540;9.268;2022-12-16T01:58:26;96093.91;;;-1.74;100.00
4814;BME280;15375;48.540;9.268;2022-12-16T02:00:54;95977.84;;;-2.58;100.00
4814;BME280;15375;48.540;9.268;2022-12-16T02:03:19;96104.44;;;-1.88;100.00
4814;BME280;15375;48.540;9.268;2022-12-16T02:05:46;96079.88;;;-2.01;100.00
4814;BME280;15375;48.540;9.268;2022-12-16T02:08:14;96080.78;;;-1.90;100.00
4814;BME280;15375;48.540;9.268;2022-12-16T02:15:58;96084.25;;;-1.86;100.00
4814;BME280;15375;48.540;9.268;2022-12-16T02:21:02;96128.16;;;-1.83;100.00
4814;BME280;15375;48.540;9.268;2022-12-16T02:30:19;96131.25;;;-1.81;100.00
4814;BME280;15375;48.540;9.268;2022-12-16T02:35:40;96115.84;;;-1.95;100.00
4814;BME280;15375;48.540;9.268;2022-12-16T02:44:05;96126.06;;;-2.01;100.00
4814;BME280;15375;48.540;9.268;2022-12-16T02:46:38;96084.25;;;-2.23;100.00
4814;BME280;15375;48.540;9.268;2022-12-16T02:49:38;96104.56;;;-2.15;100.00
4814;BME280;15375;48.540;9.268;2022-12-16T02:51:57;96130.31;;;-1.96;100.00
4814;BME280;15375;48.540;9.268;2022-12-16T02:54:24;96112.66;;;-2.08;100.00
4814;BME280;15375;48.540;9.268;2022-12-16T02:57:22;96136.84;;;-1.94;100.00
4814;BME280;15375;48.540;9.268;2022-12-16T03:05:32;96145.81;;;-1.79;100.00
4814;BME280;15375;48.540;9.268;2022-12-16T03:08:03;96134.91;;;-1.97;100.00
4814;BME280;15375;48.540;9.268;2022-12-16T03:10:34;96131.50;;;-1.94;100.00
4814;BME280;15375;48.540;9.268;2022-12-16T03:13:02;96099.22;;;-2.15;100.00
4814;BME280;15375;48.540;9.268;2022-12-16T03:15:32;96119.22;;;-2.02;100.00
4814;BME280;15375;48.540;9.268;2022-12-16T03:18:00;96115.84;;;-1.95;100.00
4814;BME280;15375;48.540;9.268;2022-12-16T03:20:27;96163.06;;;-1.69;100.00
4814;BME280;15375;48.540;9.268;2022-12-16T03:22:57;96160.06;;;-1.64;100.00
4814;BME280;15375;48.540;9.268;2022-12-16T03:25:23;96103.94;;;-2.01;100.00
4814;BME280;15375;48.540;9.268;2022-12-16T03:28:05;96121.84;;;-2.05;100.00
4814;BME280;15375;48.540;9.268;2022-12-16T03:30:35;96156.88;;;-1.77;100.00
4814;BME280;15375;48.540;9.268;2022-12-16T03:33:11;96136.50;;;-1.92;100.00
4814;BME280;15375;48.540;9.268;2022-12-16T03:35:52;96158.41;;;-1.76;100.00
4814;BME280;15375;48.540;9.268;2022-12-16T03:38:20;96123.72;;;-2.09;100.00
4814;BME280;15375;48.540;9.268;2022-12-16T03:40:47;96168.69;;;-1.81;100.00
4814;BME280;15375;48.540;9.268;2022-12-16T03:43:13;96117.59;;;-2.10;100.00
4814;BME280;15375;48.540;9.268;2022-12-16T03:45:42;96152.53;;;-1.88;100.00
4814;BME280;15375;48.540;9.268;2022-12-16T03:48:09;96172.53;;;-1.79;100.00
4814;BME280;15375;48.540;9.268;2022-12-16T03:50:36;96132.47;;;-2.09;100.00
4814;BME280;15375;48.540;9.268;2022-12-16T03:53:02;96141.00;;;-2.00;100.00
4814;BME280;15375;48.540;9.268;2022-12-16T03:55:28;96126.41;;;-2.06;100.00
4814;BME280;15375;48.540;9.268;2022-12-16T03:57:54;96105.59;;;-2.23;100.00
4814;BME280;15375;48.540;9.268;2022-12-16T04:00:21;96187.91;;;-1.69;100.00
4814;BME280;15375;48.540;9.268;2022-12-16T04:02:47;96130.63;;;-2.05;100.00
4814;BME280;15375;48.540;9.268;2022-12-16T04:05:12;96167.50;;;-1.84;100.00
4814;BME280;15375;48.540;9.268;2022-12-16T04:07:38;96164.06;;;-1.81;100.00
4814;BME280;15375;48.540;9.268;2022-12-16T04:10:04;96165.56;;;-1.87;100.00
4814;BME280;15375;48.540;9.268;2022-12-16T04:12:29;96207.41;;;-1.65;100.00
4814;BME280;15375;48.540;9.268;2022-12-16T04:15:13;96179.03;;;-1.76;100.00
4814;BME280;15375;48.540;9.268;2022-12-16T04:17:57;96186.94;;;-1.83;100.00
4814;BME280;15375;48.540;9.268;2022-12-16T04:20:44;96208.31;;;-1.87;100.00
4814;BME280;15375;48.540;9.268;2022-12-16T04:23:29;96207.53;;;-1.87;100.00
4814;BME280;15375;48.540;9.268;2022-12-16T04:26:15;96209.81;;;-1.89;100.00
4814;BME280;15375;48.540;9.268;2022-12-16T04:28:41;96184.31;;;-2.13;100.00
4814;BME280;15375;48.540;9.268;2022-12-16T04:31:06;96156.72;;;-2.24;100.00
4814;BME280;15375;48.540;9.268;2022-12-16T04:33:32;96196.56;;;-2.09;100.00
4814;BME280;15375;48.540;9.268;2022-12-16T04:36:16;96193.88;;;-2.12;100.00
4814;BME280;15375;48.540;9.268;2022-12-16T04:39:00;96201.03;;;-2.20;100.00
4814;BME280;15375;48.540;9.268;2022-12-16T04:41:44;96211.09;;;-2.06;100.00
4814;BME280;15375;48.540;9.268;2022-12-16T04:44:28;96227.34;;;-1.88;100.00
4814;BME280;15375;48.540;9.268;2022-12-16T04:47:12;96226.56;;;-1.92;100.00
4814;BME280;15375;48.540;9.268;2022-12-16T04:49:56;96219.56;;;-2.01;100.00
4814;BME280;15375;48.540;9.268;2022-12-16T04:52:40;96230.34;;;-1.94;100.00
4814;BME280;15375;48.540;9.268;2022-12-16T04:55:23;96238.09;;;-1.85;100.00
4814;BME280;15375;48.540;9.268;2022-12-16T04:58:07;96250.06;;;-1.75;100.00
4814;BME280;15375;48.540;9.268;2022-12-16T05:00:52;96235.50;;;-1.81;100.00
4814;BME280;15375;48.540;9.268;2022-12-16T05:03:36;96253.91;;;-1.73;100.00
4814;BME280;15375;48.540;9.268;2022-12-16T05:06:20;96245.06;;;-1.77;100.00
4814;BME280;15375;48.540;9.268;2022-12-16T05:09:05;96263.94;;;-1.63;100.00
4814;BME280;15375;48.540;9.268;2022-12-16T05:11:49;96252.81;;;-1.68;100.00
4814;BME280;15375;48.540;9.268;2022-12-16T05:14:33;96270.06;;;-1.62;100.00
4814;BME280;15375;48.540;9.268;2022-12-16T05:17:34;96254.28;;;-1.74;100.00
4814;BME280;15375;48.540;9.268;2022-12-16T05:20:18;96270.78;;;-1.65;100.00
4814;BME280;15375;48.540;9.268;2022-12-16T05:23:02;96273.88;;;-1.63;100.00
4814;BME280;15375;48.540;9.268;2022-12-16T05:25:45;96275.47;;;-1.59;100.00
4814;BME280;15375;48.540;9.268;2022-12-16T05:28:29;96285.09;;;-1.51;100.00
4814;BME280;15375;48.540;9.268;2022-12-16T05:31:13;96277.44;;;-1.52;100.00
4814;BME280;15375;48.540;9.268;2022-12-16T05:34:00;96290.50;;;-1.47;100.00
4814;BME280;15375;48.540;9.268;2022-12-16T05:36:44;96274.00;;;-1.82;100.00
4814;BME280;15375;48.540;9.268;2022-12-16T05:39:28;96299.94;;;-1.86;100.00
4814;BME280;15375;48.540;9.268;2022-12-16T05:42:12;96306.78;;;-1.89;100.00
4814;BME280;15375;48.540;9.268;2022-12-16T05:45:16;96294.47;;;-1.94;100.00
4814;BME280;15375;48.540;9.268;2022-12-16T05:48:00;96289.91;;;-1.93;100.00
4814;BME280;15375;48.540;9.268;2022-12-16T05:50:44;96303.03;;;-1.81;100.00
4814;BME280;15375;48.540;9.268;2022-12-16T05:53:28;96298.06;;;-1.82;100.00
4814;BME280;15375;48.540;9.268;2022-12-16T05:56:12;96306.88;;;-1.78;100.00
4814;BME280;15375;48.540;9.268;2022-12-16T05:58:56;96316.88;;;-1.75;100.00
4814;BME280;15375;48.540;9.268;2022-12-16T06:01:40;96317.59;;;-1.78;100.00
4814;BME280;15375;48.540;9.268;2022-12-16T06:04:24;96309.44;;;-1.89;100.00
4814;BME280;15375;48.540;9.268;2022-12-16T06:07:08;96322.84;;;-1.85;100.00
4814;BME280;15375;48.540;9.268;2022-12-16T06:09:52;96328.28;;;-1.78;100.00
4814;BME280;15375;48.540;9.268;2022-12-16T06:12:36;96336.72;;;-1.76;100.00
4814;BME280;15375;48.540;9.268;2022-12-16T06:15:20;96343.81;;;-1.61;100.00
4814;BME280;15375;48.540;9.268;2022-12-16T06:18:04;96326.66;;;-1.86;100.00
4814;BME280;15375;48.540;9.268;2022-12-16T06:20:48;96358.91;;;-1.72;100.00
4814;BME280;15375;48.540;9.268;2022-12-16T06:23:32;96354.88;;;-1.89;100.00
4814;BME280;15375;48.540;9.268;2022-12-16T06:26:18;96311.47;;;-2.31;100.00
4814;BME280;15375;48.540;9.268;2022-12-16T06:29:02;96352.13;;;-2.19;100.00
4814;BME280;15375;48.540;9.268;2022-12-16T06:31:46;96387.88;;;-2.01;100.00
4814;BME280;15375;48.540;9.268;2022-12-16T06:34:30;96382.75;;;-2.13;100.00
4814;BME280;15375;48.540;9.268;2022-12-16T06:37:13;96364.72;;;-2.19;100.00
4814;BME280;15375;48.540;9.268;2022-12-16T06:39:58;96405.16;;;-1.95;100.00
4814;BME280;15375;48.540;9.268;2022-12-16T06:42:42;96405.28;;;-1.87;100.00
4814;BME280;15375;48.540;9.268;2022-12-16T06:45:26;96392.53;;;-1.98;100.00
4814;BME280;15375;48.540;9.268;2022-12-16T06:48:10;96422.59;;;-1.78;100.00
4814;BME280;15375;48.540;9.268;2022-12-16T06:50:54;96398.28;;;-1.96;100.00
4814;BME280;15375;48.540;9.268;2022-12-16T06:53:38;96416.13;;;-1.77;100.00
4814;BME280;15375;48.540;9.268;2022-12-16T06:56:22;96397.56;;;-1.92;100.00
4814;BME280;15375;48.540;9.268;2022-12-16T06:59:07;96410.00;;;-1.77;100.00
4814;BME280;15375;48.540;9.268;2022-12-16T07:01:50;96401.34;;;-1.94;100.00
4814;BME280;15375;48.540;9.268;2022-12-16T07:04:35;96442.97;;;-1.70;100.00
4814;BME280;15375;48.540;9.268;2022-12-16T07:07:19;96460.59;;;-1.65;100.00
4814;BME280;15375;48.540;9.268;2022-12-16T07:10:03;96445.25;;;-1.68;100.00
4814;BME280;15375;48.540;9.268;2022-12-16T07:12:47;96457.19;;;-1.62;100.00
4814;BME280;15375;48.540;9.268;2022-12-16T07:15:31;96459.00;;;-1.70;100.00
4814;BME280;15375;48.540;9.268;2022-12-16T07:18:16;96470.88;;;-1.67;100.00
4814;BME280;15375;48.540;9.268;2022-12-16T07:20:59;96476.22;;;-1.67;100.00
4814;BME280;15375;48.540;9.268;2022-12-16T07:23:43;96473.06;;;-1.73;100.00
4814;BME280;15375;48.540;9.268;2022-12-16T07:26:27;96471.09;;;-1.76;100.00
4814;BME280;15375;48.540;9.268;2022-12-16T07:29:11;96484.31;;;-1.64;100.00
4814;BME280;15375;48.540;9.268;2022-12-16T07:31:55;96469.63;;;-1.73;100.00
4814;BME280;15375;48.540;9.268;2022-12-16T07:34:39;96502.41;;;-1.54;100.00
4814;BME280;15375;48.540;9.268;2022-12-16T07:37:23;96485.00;;;-1.67;100.00
4814;BME280;15375;48.540;9.268;2022-12-16T07:40:07;96498.81;;;-1.87;100.00
4814;BME280;15375;48.540;9.268;2022-12-16T07:42:52;96509.91;;;-1.85;100.00
4814;BME280;15375;48.540;9.268;2022-12-16T07:45:35;96522.97;;;-1.80;100.00
4814;BME280;15375;48.540;9.268;2022-12-16T07:48:20;96500.59;;;-1.95;100.00
4814;BME280;15375;48.540;9.268;2022-12-16T07:51:04;96496.25;;;-2.03;100.00
4814;BME280;15375;48.540;9.268;2022-12-16T07:53:48;96485.81;;;-2.31;100.00
4814;BME280;15375;48.540;9.268;2022-12-16T07:56:31;96537.88;;;-2.02;100.00
4814;BME280;15375;48.540;9.268;2022-12-16T07:59:15;96478.47;;;-2.57;100.00
4814;BME280;15375;48.540;9.268;2022-12-16T08:01:59;96522.34;;;-2.16;100.00
4814;BME280;15375;48.540;9.268;2022-12-16T08:04:43;96525.59;;;-2.07;100.00
4814;BME280;15375;48.540;9.268;2022-12-16T08:07:27;96518.06;;;-2.20;100.00
4814;BME280;15375;48.540;9.268;2022-12-16T08:10:11;96556.28;;;-1.97;100.00
4814;BME280;15375;48.540;9.268;2022-12-16T08:13:00;96551.28;;;-1.99;100.00
4814;BME280;15375;48.540;9.268;2022-12-16T08:15:44;96563.13;;;-1.77;100.00
4814;BME280;15375;48.540;9.268;2022-12-16T08:18:28;96575.78;;;-1.74;100.00
4814;BME280;15375;48.540;9.268;2022-12-16T08:21:12;96539.59;;;-1.90;100.00
4814;BME280;15375;48.540;9.268;2022-12-16T08:23:56;96555.69;;;-1.64;100.00
4814;BME280;15375;48.540;9.268;2022-12-16T08:26:40;96568.47;;;-1.54;100.00
4814;BME280;15375;48.540;9.268;2022-12-16T08:29:25;96550.09;;;-1.56;100.00
4814;BME280;15375;48.540;9.268;2022-12-16T08:32:09;96537.09;;;-1.57;100.00
4814;BME280;15375;48.540;9.268;2022-12-16T08:34:53;96547.38;;;-1.37;100.00
4814;BME280;15375;48.540;9.268;2022-12-16T08:37:37;96559.84;;;-1.18;100.00
4814;BME280;15375;48.540;9.268;2022-12-16T08:40:21;96542.47;;;-1.05;100.00
4814;BME280;15375;48.540;9.268;2022-12-16T08:43:05;96566.56;;;-0.79;100.00
4814;BME280;15375;48.540;9.268;2022-12-16T08:45:52;96586.63;;;-0.66;100.00
4814;BME280;15375;48.540;9.268;2022-12-16T08:48:36;96575.50;;;-0.68;100.00
4814;BME280;15375;48.540;9.268;2022-12-16T08:51:21;96590.28;;;-0.47;100.00
4814;BME280;15375;48.540;9.268;2022-12-16T08:54:05;96568.44;;;-0.53;100.00
4814;BME280;15375;48.540;9.268;2022-12-16T08:56:49;96557.50;;;-0.71;100.00
4814;BME280;15375;48.540;9.268;2022-12-16T08:59:33;96608.63;;;-0.49;100.00
4814;BME280;15375;48.540;9.268;2022-12-16T09:02:21;96598.97;;;-0.57;100.00
4814;BME280;15375;48.540;9.268;2022-12-16T09:05:05;96541.44;;;-1.23;100.00
4814;BME280;15375;48.540;9.268;2022-12-16T09:07:49;96620.63;;;-0.96;100.00
4814;BME280;15375;48.540;9.268;2022-12-16T09:10:33;96611.78;;;-1.22;100.00
4814;BME280;15375;48.540;9.268;2022-12-16T09:13:17;96602.38;;;-1.36;100.00
4814;BME280;15375;48.540;9.268;2022-12-16T09:16:01;96619.69;;;-1.30;100.00
4814;BME280;15375;48.540;9.268;2022-12-16T09:18:46;96657.94;;;-1.03;100.00
4814;BME280;15375;48.540;9.268;2022-12-16T09:21:29;96630.19;;;-1.40;100.00
4814;BME280;15375;48.540;9.268;2022-12-16T09:24:13;96647.50;;;-1.34;100.00
4814;BME280;15375;48.540;9.268;2022-12-16T09:26:58;96653.16;;;-1.16;100.00
4814;BME280;15375;48.540;9.268;2022-12-16T09:29:42;96646.38;;;-1.10;100.00
4814;BME280;15375;48.540;9.268;2022-12-16T09:32:26;96646.06;;;-1.05;100.00
4814;BME280;15375;48.540;9.268;2022-12-16T09:35:10;96617.69;;;-1.36;100.00
4814;BME280;15375;48.540;9.268;2022-12-16T09:37:54;96645.47;;;-1.18;100.00
4814;BME280;15375;48.540;9.268;2022-12-16T09:40:40;96665.09;;;-1.10;100.00
4814;BME280;15375;48.540;9.268;2022-12-16T09:47:01;96659.63;;;-0.95;100.00
4814;BME280;15375;48.540;9.268;2022-12-16T09:49:50;96647.09;;;-1.13;100.00
4814;BME280;15375;48.540;9.268;2022-12-16T09:52:48;96666.53;;;-0.94;100.00
4814;BME280;15375;48.540;9.268;2022-12-16T09:55:37;96656.94;;;-0.95;100.00
4814;BME280;15375;48.540;9.268;2022-12-16T09:58:25;96669.78;;;-0.81;100.00
4814;BME280;15375;48.540;9.268;2022-12-16T10:01:13;96659.28;;;-0.67;100.00
4814;BME280;15375;48.540;9.268;2022-12-16T10:03:58;96670.41;;;-0.39;100.00
4814;BME280;15375;48.540;9.268;2022-12-16T10:06:47;96673.00;;;-0.42;100.00
4814;BME280;15375;48.540;9.268;2022-12-16T10:15:50;96673.13;;;-0.35;100.00
4814;BME280;15375;48.540;9.268;2022-12-16T10:22:26;96679.59;;;-0.63;100.00
4814;BME280;15375;48.540;9.268;2022-12-16T10:25:22;96686.72;;;-0.47;100.00
4814;BME280;15375;48.540;9.268;2022-12-16T10:28:18;96694.38;;;-0.20;100.00
4814;BME280;15375;48.540;9.268;2022-12-16T10:31:11;96680.00;;;-0.08;100.00
4814;BME280;15375;48.540;9.268;2022-12-16T10:33:56;96692.28;;;-0.04;100.00
4814;BME280;15375;48.540;9.268;2022-12-16T10:36:40;96679.69;;;-0.03;100.00
4814;BME280;15375;48.540;9.268;2022-12-16T10:39:32;96696.09;;;-0.05;100.00
4814;BME280;15375;48.540;9.268;2022-12-16T10:42:25;96689.56;;;-0.07;100.00
4814;BME280;15375;48.540;9.268;2022-12-16T10:48:04;96671.34;;;-0.24;100.00
4814;BME280;15375;48.540;9.268;2022-12-16T10:50:47;96682.28;;;-0.10;100.00
4814;BME280;15375;48.540;9.268;2022-12-16T10:53:33;96693.72;;;0.20;100.00
4814;BME280;15375;48.540;9.268;2022-12-16T10:59:20;96692.19;;;0.52;100.00
4814;BME280;15375;48.540;9.268;2022-12-16T11:02:18;96686.72;;;0.42;100.00
4814;BME280;15375;48.540;9.268;2022-12-16T11:08:34;96683.25;;;0.41;100.00
4814;BME280;15375;48.540;9.268;2022-12-16T11:11:22;96691.38;;;0.48;100.00
4814;BME280;15375;48.540;9.268;2022-12-16T11:14:22;96690.97;;;0.46;100.00
4814;BME280;15375;48.540;9.268;2022-12-16T11:20:21;96694.38;;;0.43;100.00
4814;BME280;15375;48.540;9.268;2022-12-16T11:26:07;96687.50;;;0.42;100.00
4814;BME280;15375;48.540;9.268;2022-12-16T11:29:20;96700.66;;;0.54;100.00
4814;BME280;15375;48.540;9.268;2022-12-16T11:32:25;96705.69;;;0.59;100.00
4814;BME280;15375;48.540;9.268;2022-12-16T11:35:14;96689.75;;;0.40;100.00
4814;BME280;15375;48.540;9.268;2022-12-16T11:38:01;96658.88;;;0.20;100.00
4814;BME280;15375;48.540;9.268;2022-12-16T11:40:48;96681.47;;;0.19;100.00
4814;BME280;15375;48.540;9.268;2022-12-16T11:43:34;96689.50;;;0.52;100.00
4814;BME280;15375;48.540;9.268;2022-12-16T11:46:25;96697.88;;;0.84;100.00
4814;BME280;15375;48.540;9.268;2022-12-16T11:49:19;96700.19;;;0.86;100.00
4814;BME280;15375;48.540;9.268;2022-12-16T11:52:09;96697.88;;;0.84;100.00
4814;BME280;15375;48.540;9.268;2022-12-16T11:55:11;96708.38;;;0.59;100.00
4814;BME280;15375;48.540;9.268;2022-12-16T11:58:22;96724.13;;;0.64;100.00
4814;BME280;15375;48.540;9.268;2022-12-16T12:04:21;96725.44;;;0.44;100.00
4814;BME280;15375;48.540;9.268;2022-12-16T12:13:13;96735.50;;;0.21;100.00
4814;BME280;15375;48.540;9.268;2022-12-16T12:16:13;96725.72;;;0.06;100.00
4814;BME280;15375;48.540;9.268;2022-12-16T12:19:13;96730.41;;;0.13;100.00
4814;BME280;15375;48.540;9.268;2022-12-16T12:22:06;96737.31;;;0.14;100.00
4814;BME280;15375;48.540;9.268;2022-12-16T12:27:56;96738.63;;;-0.33;100.00
4814;BME280;15375;48.540;9.268;2022-12-16T12:31:11;96744.06;;;-0.26;100.00
4814;BME280;15375;48.540;9.268;2022-12-16T12:34:07;96758.19;;;-0.03;100.00
4814;BME280;15375;48.540;9.268;2022-12-16T12:40:24;96750.56;;;-0.01;100.00
4814;BME280;15375;48.540;9.268;2022-12-16T12:46:49;96758.00;;;0.13;100.00
4814;BME280;15375;48.540;9.268;2022-12-16T12:49:56;96764.59;;;0.19;100.00
4814;BME280;15375;48.540;9.268;2022-12-16T12:58:36;96758.84;;;0.17;100.00
4814;BME280;15375;48.540;9.268;2022-12-16T13:01:26;96731.31;;;-0.32;100.00
4814;BME280;15375;48.540;9.268;2022-12-16T13:04:16;96769.22;;;-0.08;100.00
4814;BME280;15375;48.540;9.268;2022-12-16T13:07:01;96751.53;;;-0.38;100.00
4814;BME280;15375;48.540;9.268;2022-12-16T13:16:03;96795.16;;;-0.15;100.00
4814;BME280;15375;48.540;9.268;2022-12-16T13:18:47;96784.16;;;-0.07;100.00
4814;BME280;15375;48.540;9.268;2022-12-16T13:27:11;96796.88;;;0.26;100.00
4814;BME280;15375;48.540;9.268;2022-12-16T13:32:57;96812.56;;;0.24;100.00
4814;BME280;15375;48.540;9.268;2022-12-16T13:35:59;96810.91;;;0.16;100.00
4814;BME280;15375;48.540;9.268;2022-12-16T13:38:45;96817.59;;;0.29;100.00
4814;BME280;15375;48.540;9.268;2022-12-16T13:50:49;96835.50;;;0.51;100.00
4814;BME280;15375;48.540;9.268;2022-12-16T13:53:43;96835.28;;;0.34;100.00
4814;BME280;15375;48.540;9.268;2022-12-16T13:56:39;96829.97;;;0.37;100.00
4814;BME280;15375;48.540;9.268;2022-12-16T13:59:27;96841.88;;;0.40;100.00
4814;BME280;15375;48.540;9.268;2022-12-16T14:02:37;96839.06;;;0.29;100.00
4814;BME280;15375;48.540;9.268;2022-12-16T14:05:26;96839.59;;;0.12;100.00
4814;BME280;15375;48.540;9.268;2022-12-16T14:08:20;96841.28;;;-0.03;100.00
4814;BME280;15375;48.540;9.268;2022-12-16T14:11:15;96853.94;;;0.00;100.00
4814;BME280;15375;48.540;9.268;2022-12-16T14:14:22;96848.44;;;-0.10;100.00
4814;BME280;15375;48.540;9.268;2022-12-16T14:17:20;96871.88;;;-0.04;100.00
4814;BME280;15375;48.540;9.268;2022-12-16T14:20:15;96810.81;;;-0.63;100.00
4814;BME280;15375;48.540;9.268;2022-12-16T14:25:55;96902.88;;;-0.29;100.00
4814;BME280;15375;48.540;9.268;2022-12-16T14:28:40;96904.16;;;-0.42;100.00
4814;BME280;15375;48.540;9.268;2022-12-16T14:31:26;96914.97;;;-0.38;100.00
4814;BME280;15375;48.540;9.268;2022-12-16T14:34:20;96897.53;;;-0.71;100.00
4814;BME280;15375;48.540;9.268;2022-12-16T14:37:28;96922.63;;;-0.79;100.00
4814;BME280;15375;48.540;9.268;2022-12-16T14:40:26;96915.78;;;-0.95;100.00
4814;BME280;15375;48.540;9.268;2022-12-16T14:43:13;96909.38;;;-1.10;100.00
4814;BME280;15375;48.540;9.268;2022-12-16T14:46:03;96900.75;;;-1.38;100.00
4814;BME280;15375;48.540;9.268;2022-12-16T14:49:01;96920.19;;;-1.41;100.00
4814;BME280;15375;48.540;9.268;2022-12-16T14:51:49;96923.28;;;-1.39;100.00
4814;BME280;15375;48.540;9.268;2022-12-16T14:54:41;96921.59;;;-1.47;100.00
4814;BME280;15375;48.540;9.268;2022-12-16T14:57:59;96943.50;;;-1.57;100.00
4814;BME280;15375;48.540;9.268;2022-12-16T15:00:46;96936.72;;;-1.70;100.00
4814;BME280;15375;48.540;9.268;2022-12-16T15:03:43;96911.94;;;-2.02;100.00
4814;BME280;15375;48.540;9.268;2022-12-16T15:06:35;96918.22;;;-1.95;100.00
4814;BME280;15375;48.540;9.268;2022-12-16T15:09:28;96949.75;;;-1.84;100.00
4814;BME280;15375;48.540;9.268;2022-12-16T15:12:18;96958.09;;;-1.86;100.00
4814;BME280;15375;48.540;9.268;2022-12-16T15:15:04;96966.81;;;-1.73;100.00
4814;BME280;15375;48.540;9.268;2022-12-16T15:17:56;96969.06;;;-1.75;100.00
4814;BME280;15375;48.540;9.268;2022-12-16T15:21:07;96971.03;;;-1.72;100.00
4814;BME280;15375;48.540;9.268;2022-12-16T15:23:51;96970.94;;;-1.76;100.00
4814;BME280;15375;48.540;9.268;2022-12-16T15:26:43;96933.19;;;-2.06;100.00
4814;BME280;15375;48.540;9.268;2022-12-16T15:29:34;96986.41;;;-1.85;100.00
4814;BME280;15375;48.540;9.268;2022-12-16T15:32:36;96914.84;;;-2.38;100.00
4814;BME280;15375;48.540;9.268;2022-12-16T15:35:33;96999.25;;;-1.90;100.00
4814;BME280;15375;48.540;9.268;2022-12-16T15:38:29;96995.19;;;-1.84;100.00
4814;BME280;15375;48.540;9.268;2022-12-16T15:41:36;97005.47;;;-1.86;100.00
4814;BME280;15375;48.540;9.268;2022-12-16T15:44:25;97005.47;;;-1.86;100.00
4814;BME280;15375;48.540;9.268;2022-12-16T15:47:32;97015.38;;;-1.87;100.00
4814;BME280;15375;48.540;9.268;2022-12-16T15:50:25;96992.66;;;-2.09;100.00
4814;BME280;15375;48.540;9.268;2022-12-16T15:56:43;97022.19;;;-1.89;100.00
4814;BME280;15375;48.540;9.268;2022-12-16T15:59:32;97018.19;;;-1.96;100.00
4814;BME280;15375;48.540;9.268;2022-12-16T16:05:01;97036.31;;;-1.89;100.00
4814;BME280;15375;48.540;9.268;2022-12-16T16:07:45;97030.63;;;-1.87;100.00
4814;BME280;15375;48.540;9.268;2022-12-16T16:10:29;97067.19;;;-1.60;100.00
4814;BME280;15375;48.540;9.268;2022-12-16T16:13:14;97066.69;;;-1.50;100.00
4814;BME280;15375;48.540;9.268;2022-12-16T16:15:58;97049.09;;;-1.51;100.00
4814;BME280;15375;48.540;9.268;2022-12-16T16:18:42;97058.41;;;-1.45;100.00